Time;durP1;ratioP1;P1;durP2;ratioP2;P2;SDS_P1;SDS_P2;PMS_P1;PMS_P2;Temp;Humidity;BMP_temperature;BMP_pressure;BME280_temperature;BME280_humidity;BME280_pressure;Samples;Min_cycle;Max_cycle;Signal;HPM_P1;HPM_P2
2023/03/31 00:01:18;;;;;;;;;;;;;;;9.60;100.00;100345.97;5036436;28;19921;-80
2023/03/31 00:03:43;;;;;;;;;;;;;;;9.42;100.00;100348.31;5039731;28;20342;-77
2023/03/31 00:06:10;;;;;;;;;;;;;;;9.35;100.00;100332.88;5052428;28;19920;-79
2023/03/31 00:08:35;;;;;;;;;;;;;;;9.52;100.00;100332.34;5037826;28;19966;-77
2023/03/31 00:11:01;;;;;;;;;;;;;;;9.50;100.00;100328.09;5054540;28;19924;-78
2023/03/31 00:13:27;;;;;;;;;;;;;;;9.57;100.00;100321.25;5065873;28;20321;-76
2023/03/31 00:15:56;;;;;;;;;;;;;;;9.57;100.00;100322.09;5058359;28;20332;-78
2023/03/31 00:18:24;;;;;;;;;;;;;;;9.47;100.00;100314.94;5066629;28;19942;-79
2023/03/31 00:20:51;;;;;;;;;;;;;;;9.56;100.00;100309.69;5050244;28;19919;-77
2023/03/31 00:23:17;;;;;;;;;;;;;;;9.66;100.00;100301.72;5036835;28;19942;-78
2023/03/31 00:25:43;;;;;;;;;;;;;;;9.53;100.00;100307.25;5051063;28;20025;-76
2023/03/31 00:28:08;;;;;;;;;;;;;;;9.45;100.00;100312.38;5050808;28;19974;-78
2023/03/31 00:30:33;;;;;;;;;;;;;;;9.45;100.00;100315.06;5039274;28;20379;-80
2023/03/31 00:32:59;;;;;;;;;;;;;;;9.37;100.00;100313.00;5034503;28;20490;-82
2023/03/31 00:35:24;;;;;;;;;;;;;;;9.48;100.00;100296.03;5038490;28;20324;-81
2023/03/31 00:37:49;;;;;;;;;;;;;;;9.27;100.00;100302.19;5037533;28;19920;-80
2023/03/31 00:40:15;;;;;;;;;;;;;;;9.27;100.00;100304.03;5035156;28;20190;-81
2023/03/31 00:42:40;;;;;;;;;;;;;;;9.26;100.00;100300.47;5036941;28;20207;-80
2023/03/31 00:45:19;;;;;;;;;;;;;;;9.18;100.00;100304.75;5038654;28;19924;-80
2023/03/31 00:47:46;;;;;;;;;;;;;;;9.18;100.00;100284.16;5058285;28;19920;-81
2023/03/31 00:50:31;;;;;;;;;;;;;;;9.22;100.00;100282.94;5055172;28;20027;-81
2023/03/31 00:52:58;;;;;;;;;;;;;;;9.29;100.00;100272.59;5057543;28;19920;-83
2023/03/31 00:55:34;;;;;;;;;;;;;;;9.32;100.00;100264.31;5054352;28;19923;-81
2023/03/31 00:58:00;;;;;;;;;;;;;;;9.37;100.00;100264.78;5034735;28;19924;-81
2023/03/31 01:00:26;;;;;;;;;;;;;;;9.38;100.00;100252.25;5030011;28;19924;-82
2023/03/31 01:02:54;;;;;;;;;;;;;;;9.29;100.00;100248.47;5054095;28;19927;-82
2023/03/31 01:05:25;;;;;;;;;;;;;;;9.24;100.00;100237.31;5054047;28;20452;-82
2023/03/31 01:07:50;;;;;;;;;;;;;;;9.17;100.00;100228.06;5050346;28;20332;-82
2023/03/31 01:10:16;;;;;;;;;;;;;;;9.07;100.00;100225.28;5068586;28;20027;-83
2023/03/31 01:12:43;;;;;;;;;;;;;;;9.05;100.00;100221.88;5053460;28;19920;-82
2023/03/31 01:15:08;;;;;;;;;;;;;;;8.97;100.00;100218.00;5066258;28;19943;-82
2023/03/31 01:17:34;;;;;;;;;;;;;;;8.93;100.00;100213.84;5052586;28;19920;-82
2023/03/31 01:20:00;;;;;;;;;;;;;;;8.93;100.00;100202.31;5051516;28;19924;-82
2023/03/31 01:22:44;;;;;;;;;;;;;;;8.87;100.00;100206.34;5076508;28;20330;-81
2023/03/31 01:25:10;;;;;;;;;;;;;;;8.94;100.00;100194.16;5070643;28;19938;-82
2023/03/31 01:27:35;;;;;;;;;;;;;;;8.89;100.00;100188.31;5060935;28;19919;-81
2023/03/31 01:30:10;;;;;;;;;;;;;;;8.94;100.00;100191.47;5058787;28;19924;-80
2023/03/31 01:32:54;;;;;;;;;;;;;;;8.94;100.00;100180.75;5059057;28;19932;-81
2023/03/31 01:35:33;;;;;;;;;;;;;;;8.92;100.00;100173.84;5073038;28;20106;-80
2023/03/31 01:38:15;;;;;;;;;;;;;;;9.06;100.00;100173.53;5069121;28;19981;-81
2023/03/31 01:40:50;;;;;;;;;;;;;;;9.04;100.00;100161.28;5055367;28;19931;-78
2023/03/31 01:43:34;;;;;;;;;;;;;;;9.05;100.00;100162.97;5055706;28;19980;-79
2023/03/31 01:46:00;;;;;;;;;;;;;;;9.21;100.00;100155.34;5071516;28;19920;-81
2023/03/31 01:48:32;;;;;;;;;;;;;;;9.23;100.00;100156.09;5069382;28;19920;-82
2023/03/31 01:51:02;;;;;;;;;;;;;;;9.28;100.00;100153.00;5061348;28;19924;-78
2023/03/31 01:53:28;;;;;;;;;;;;;;;9.47;100.00;100132.72;5050644;28;19931;-81
2023/03/31 01:55:59;;;;;;;;;;;;;;;9.39;100.00;100136.91;5056781;28;19920;-78
2023/03/31 01:58:31;;;;;;;;;;;;;;;9.46;100.00;100129.19;5054535;28;19925;-80
2023/03/31 02:01:20;;;;;;;;;;;;;;;9.50;100.00;100125.28;5049633;28;20134;-79
2023/03/31 02:03:50;;;;;;;;;;;;;;;9.35;100.00;100119.38;5031502;28;19986;-76
2023/03/31 02:06:17;;;;;;;;;;;;;;;9.52;100.00;100103.72;5048789;28;19928;-81
2023/03/31 02:08:43;;;;;;;;;;;;;;;9.43;100.00;100105.31;5040263;28;19924;-80
2023/03/31 02:11:09;;;;;;;;;;;;;;;9.53;100.00;100092.84;5048398;28;19931;-81
2023/03/31 02:13:34;;;;;;;;;;;;;;;9.55;100.00;100085.53;5043242;28;20130;-79
2023/03/31 02:16:01;;;;;;;;;;;;;;;9.52;100.00;100072.41;5063900;28;19927;-81
2023/03/31 02:18:29;;;;;;;;;;;;;;;9.51;100.00;100084.09;5049046;28;19921;-79
2023/03/31 02:20:56;;;;;;;;;;;;;;;9.50;100.00;100085.06;5048978;28;19927;-78
2023/03/31 02:23:21;;;;;;;;;;;;;;;9.60;100.00;100048.47;5049388;28;20343;-79
2023/03/31 02:25:48;;;;;;;;;;;;;;;9.49;100.00;100053.91;5059281;28;19928;-80
2023/03/31 02:28:15;;;;;;;;;;;;;;;9.53;100.00;100049.16;5050096;28;20482;-81
2023/03/31 02:30:51;;;;;;;;;;;;;;;9.38;100.00;100040.59;5062151;28;19920;-79
2023/03/31 02:33:17;;;;;;;;;;;;;;;9.31;100.00;100034.88;5069142;28;20376;-82
2023/03/31 02:35:42;;;;;;;;;;;;;;;9.39;100.00;100028.91;5048254;28;19924;-80
2023/03/31 02:38:08;;;;;;;;;;;;;;;9.29;100.00;100016.28;5049362;28;19920;-78
2023/03/31 02:40:33;;;;;;;;;;;;;;;9.25;100.00;100005.97;5065733;28;19970;-79
2023/03/31 02:42:58;;;;;;;;;;;;;;;9.24;100.00;99998.91;5066320;28;19926;-80
2023/03/31 02:45:36;;;;;;;;;;;;;;;9.26;100.00;99996.97;5048417;28;19960;-80
2023/03/31 02:48:01;;;;;;;;;;;;;;;9.13;100.00;99989.13;5067821;28;19981;-79
2023/03/31 02:50:27;;;;;;;;;;;;;;;9.17;100.00;99977.16;5065875;28;20370;-80
2023/03/31 02:53:02;;;;;;;;;;;;;;;9.34;100.00;99977.53;5063543;28;19931;-79
2023/03/31 02:55:36;;;;;;;;;;;;;;;9.31;100.00;99967.91;5049699;28;19924;-80
2023/03/31 02:58:08;;;;;;;;;;;;;;;9.27;100.00;99950.44;5066412;28;19965;-80
2023/03/31 03:00:37;;;;;;;;;;;;;;;9.22;100.00;99956.19;5054118;28;19924;-79
2023/03/31 03:03:20;;;;;;;;;;;;;;;9.28;100.00;99947.63;5074913;28;20188;-81
2023/03/31 03:06:24;;;;;;;;;;;;;;;9.26;100.00;99933.50;5068865;28;20166;-80
2023/03/31 03:09:11;;;;;;;;;;;;;;;9.39;100.00;99927.94;4980428;28;20410;-80
2023/03/31 03:11:48;;;;;;;;;;;;;;;9.35;100.00;99925.66;4971292;28;19968;-81
2023/03/31 03:14:22;;;;;;;;;;;;;;;9.45;100.00;99914.00;5041155;28;20052;-79
2023/03/31 03:16:49;;;;;;;;;;;;;;;9.35;100.00;99896.19;5049368;28;19920;-80
2023/03/31 03:19:18;;;;;;;;;;;;;;;9.29;100.00;99897.56;5049257;28;19924;-79
2023/03/31 03:21:44;;;;;;;;;;;;;;;9.41;100.00;99892.94;5049484;28;21349;-77
2023/03/31 03:24:10;;;;;;;;;;;;;;;9.25;100.00;99888.13;5052256;28;19955;-79
2023/03/31 03:26:35;;;;;;;;;;;;;;;9.17;100.00;99875.38;5051144;28;20008;-79
2023/03/31 03:29:00;;;;;;;;;;;;;;;9.25;100.00;99872.03;5070668;28;19981;-80
2023/03/31 03:31:26;;;;;;;;;;;;;;;9.17;100.00;99866.50;5070898;28;19920;-80
2023/03/31 03:33:51;;;;;;;;;;;;;;;9.30;100.00;99865.28;5069762;28;20417;-81
2023/03/31 03:36:16;;;;;;;;;;;;;;;9.25;100.00;99862.16;5071634;28;20006;-79
2023/03/31 03:38:42;;;;;;;;;;;;;;;9.14;100.00;99863.13;5050640;28;19920;-79
2023/03/31 03:41:07;;;;;;;;;;;;;;;9.29;100.00;99865.41;5035334;28;19926;-80
2023/03/31 03:43:32;;;;;;;;;;;;;;;9.17;100.00;99855.78;5053763;28;19930;-80
2023/03/31 03:45:57;;;;;;;;;;;;;;;9.35;100.00;99866.72;5036816;28;19971;-79
2023/03/31 03:48:23;;;;;;;;;;;;;;;9.07;100.00;99840.53;5055861;28;19924;-79
2023/03/31 03:50:48;;;;;;;;;;;;;;;9.21;100.00;99850.03;5053663;28;20014;-81
2023/03/31 03:53:14;;;;;;;;;;;;;;;9.16;100.00;99860.28;5038451;28;20323;-80
2023/03/31 03:55:39;;;;;;;;;;;;;;;9.23;100.00;99852.59;5068892;28;19973;-78
2023/03/31 03:58:04;;;;;;;;;;;;;;;9.30;100.00;99846.53;5054604;28;19927;-80
2023/03/31 04:00:29;;;;;;;;;;;;;;;9.13;100.00;99836.47;5038444;28;19989;-78
2023/03/31 04:02:55;;;;;;;;;;;;;;;9.24;100.00;99822.97;5075186;28;19924;-76
2023/03/31 04:05:20;;;;;;;;;;;;;;;9.32;100.00;99816.94;5059963;28;19921;-79
2023/03/31 04:07:45;;;;;;;;;;;;;;;9.26;100.00;99804.94;5060569;28;20274;-78
2023/03/31 04:10:10;;;;;;;;;;;;;;;9.24;100.00;99795.34;5043797;28;19960;-78
2023/03/31 04:12:35;;;;;;;;;;;;;;;9.26;100.00;99777.31;5045358;28;19960;-77
2023/03/31 04:15:01;;;;;;;;;;;;;;;9.18;100.00;99771.78;5077622;28;19959;-76
2023/03/31 04:17:33;;;;;;;;;;;;;;;9.18;100.00;99777.16;5054848;28;20027;-76
2023/03/31 04:20:04;;;;;;;;;;;;;;;9.28;100.00;99770.81;5056871;28;19927;-77
2023/03/31 04:22:34;;;;;;;;;;;;;;;9.21;100.00;99763.50;5061168;28;20294;-77
2023/03/31 04:25:00;;;;;;;;;;;;;;;9.18;100.00;99759.22;5077094;28;19923;-77
2023/03/31 04:27:26;;;;;;;;;;;;;;;9.28;100.00;99749.41;5058757;28;19943;-78
2023/03/31 04:29:53;;;;;;;;;;;;;;;9.13;100.00;99742.75;5049676;28;20394;-77
2023/03/31 04:32:20;;;;;;;;;;;;;;;9.20;100.00;99730.47;5071349;28;19956;-77
2023/03/31 04:34:46;;;;;;;;;;;;;;;9.09;100.00;99739.47;5036468;28;20286;-78
2023/03/31 04:37:11;;;;;;;;;;;;;;;9.06;100.00;99729.03;5072873;28;19920;-76
2023/03/31 04:39:36;;;;;;;;;;;;;;;9.04;100.00;99711.44;5050158;28;20222;-76
2023/03/31 04:42:02;;;;;;;;;;;;;;;9.12;100.00;99706.25;5070043;28;19963;-76
2023/03/31 04:44:27;;;;;;;;;;;;;;;9.04;100.00;99698.88;5037423;28;20665;-76
2023/03/31 04:46:52;;;;;;;;;;;;;;;8.97;100.00;99698.59;5069332;28;19924;-76
2023/03/31 04:49:17;;;;;;;;;;;;;;;8.98;100.00;99691.41;5066614;28;19920;-75
2023/03/31 04:51:43;;;;;;;;;;;;;;;9.05;100.00;99689.03;5038578;28;19928;-75
2023/03/31 04:54:09;;;;;;;;;;;;;;;9.14;100.00;99688.19;5038174;28;20013;-76
2023/03/31 04:56:34;;;;;;;;;;;;;;;9.04;100.00;99687.34;5050367;28;20164;-75
2023/03/31 04:58:59;;;;;;;;;;;;;;;8.92;100.00;99671.38;5066622;28;19924;-76
2023/03/31 05:01:25;;;;;;;;;;;;;;;8.98;100.00;99673.50;5067284;28;19947;-76
2023/03/31 05:03:50;;;;;;;;;;;;;;;8.93;100.00;99666.88;5071315;28;19920;-76
2023/03/31 05:06:15;;;;;;;;;;;;;;;8.95;100.00;99664.91;5073088;28;19919;-76
2023/03/31 05:08:41;;;;;;;;;;;;;;;8.90;100.00;99667.16;5031682;28;19978;-76
2023/03/31 05:11:06;;;;;;;;;;;;;;;9.03;100.00;99654.34;5064568;28;19928;-75
2023/03/31 05:13:31;;;;;;;;;;;;;;;8.90;100.00;99659.97;5071646;28;19920;-75
2023/03/31 05:15:57;;;;;;;;;;;;;;;8.93;100.00;99648.97;5078173;28;19924;-75
2023/03/31 05:18:22;;;;;;;;;;;;;;;8.90;100.00;99646.56;5069965;28;19978;-76
2023/03/31 05:20:47;;;;;;;;;;;;;;;8.85;100.00;99652.34;5049075;28;19950;-76
2023/03/31 05:23:12;;;;;;;;;;;;;;;8.87;100.00;99641.53;5076710;28;19919;-76
2023/03/31 05:25:38;;;;;;;;;;;;;;;8.86;100.00;99639.84;5056675;28;20342;-76
2023/03/31 05:28:03;;;;;;;;;;;;;;;8.92;100.00;99627.72;5059758;28;19937;-75
2023/03/31 05:30:28;;;;;;;;;;;;;;;8.84;100.00;99617.72;5068829;28;20003;-76
2023/03/31 05:32:54;;;;;;;;;;;;;;;8.90;100.00;99616.31;5060343;28;19916;-75
2023/03/31 05:35:19;;;;;;;;;;;;;;;8.90;100.00;99606.41;5056153;28;19920;-75
2023/03/31 05:37:45;;;;;;;;;;;;;;;8.92;100.00;99609.81;5043189;28;20041;-75
2023/03/31 05:40:10;;;;;;;;;;;;;;;8.84;100.00;99599.81;5077053;28;19958;-75
2023/03/31 05:42:36;;;;;;;;;;;;;;;8.96;100.00;99592.50;5060110;28;19923;-75
2023/03/31 05:45:01;;;;;;;;;;;;;;;9.05;100.00;99589.97;5056874;28;19955;-75
2023/03/31 05:47:26;;;;;;;;;;;;;;;9.02;100.00;99577.69;5072549;28;19920;-74
2023/03/31 05:49:52;;;;;;;;;;;;;;;9.00;100.00;99569.81;5058733;28;19916;-75
2023/03/31 05:52:17;;;;;;;;;;;;;;;8.98;100.00;99573.63;5075010;28;19926;-75
2023/03/31 05:54:43;;;;;;;;;;;;;;;9.03;100.00;99575.88;5074215;28;20431;-77
2023/03/31 05:57:08;;;;;;;;;;;;;;;9.05;100.00;99539.94;5061035;28;19919;-76
2023/03/31 05:59:35;;;;;;;;;;;;;;;9.14;100.00;99557.84;5058933;28;20501;-74
2023/03/31 06:02:00;;;;;;;;;;;;;;;8.93;100.00;99575.88;5057264;28;19942;-76
2023/03/31 06:04:26;;;;;;;;;;;;;;;8.94;100.00;99569.53;5042312;28;20070;-76
2023/03/31 06:06:52;;;;;;;;;;;;;;;8.94;100.00;99569.53;5056199;28;20374;-75
2023/03/31 06:09:18;;;;;;;;;;;;;;;9.09;100.00;99565.44;5070433;28;19935;-77
2023/03/31 06:11:43;;;;;;;;;;;;;;;9.09;100.00;99569.97;5061438;28;19970;-74
2023/03/31 06:14:08;;;;;;;;;;;;;;;9.14;100.00;99560.50;5040911;28;19954;-75
2023/03/31 06:16:33;;;;;;;;;;;;;;;8.97;100.00;99562.06;5038447;28;20260;-76
2023/03/31 06:18:59;;;;;;;;;;;;;;;8.98;100.00;99562.91;5058209;28;19956;-75
2023/03/31 06:21:24;;;;;;;;;;;;;;;9.03;100.00;99555.28;5073692;28;19919;-76
2023/03/31 06:23:53;;;;;;;;;;;;;;;9.04;100.00;99562.31;5072176;28;19931;-75
2023/03/31 06:26:19;;;;;;;;;;;;;;;8.94;100.00;99569.53;5081416;28;19919;-75
2023/03/31 06:28:44;;;;;;;;;;;;;;;8.98;100.00;99569.09;5075260;28;20274;-76
2023/03/31 06:31:11;;;;;;;;;;;;;;;8.87;100.00;99561.22;5068759;28;19920;-75
2023/03/31 06:33:37;;;;;;;;;;;;;;;8.82;100.00;99558.13;5076056;28;19928;-76
2023/03/31 06:36:04;;;;;;;;;;;;;;;8.83;100.00;99560.63;5076394;28;19927;-74
2023/03/31 06:38:29;;;;;;;;;;;;;;;8.94;100.00;99554.31;5074512;28;20010;-75
2023/03/31 06:40:54;;;;;;;;;;;;;;;8.83;100.00;99541.06;5050446;28;20302;-76
2023/03/31 06:43:20;;;;;;;;;;;;;;;8.85;100.00;99544.47;5073691;28;19920;-74
2023/03/31 06:45:45;;;;;;;;;;;;;;;8.96;100.00;99538.13;5078396;28;19963;-75
2023/03/31 06:48:10;;;;;;;;;;;;;;;8.97;100.00;99531.78;5068396;28;20024;-74
2023/03/31 06:50:36;;;;;;;;;;;;;;;8.92;100.00;99529.50;5056124;28;19930;-75
2023/03/31 06:53:02;;;;;;;;;;;;;;;8.78;100.00;99521.91;5050303;28;19920;-74
2023/03/31 06:55:27;;;;;;;;;;;;;;;8.75;100.00;99528.38;5054206;28;19924;-75
2023/03/31 06:57:52;;;;;;;;;;;;;;;8.83;100.00;99511.63;5056894;28;20090;-74
2023/03/31 07:00:18;;;;;;;;;;;;;;;8.77;100.00;99504.16;5066707;28;20020;-74
2023/03/31 07:02:43;;;;;;;;;;;;;;;8.74;100.00;99518.66;5056182;28;19927;-75
2023/03/31 07:05:08;;;;;;;;;;;;;;;8.74;100.00;99505.25;5056670;28;20330;-73
2023/03/31 07:07:33;;;;;;;;;;;;;;;8.75;100.00;99504.28;5076359;28;19927;-74
2023/03/31 07:09:58;;;;;;;;;;;;;;;8.67;100.00;99504.16;5040391;28;19962;-75
2023/03/31 07:12:24;;;;;;;;;;;;;;;8.65;100.00;99506.13;5042807;28;20031;-76
2023/03/31 07:14:49;;;;;;;;;;;;;;;8.64;100.00;99510.63;5070329;28;20042;-75
2023/03/31 07:17:14;;;;;;;;;;;;;;;8.67;100.00;99494.28;5053532;28;19923;-76
2023/03/31 07:19:41;;;;;;;;;;;;;;;8.70;100.00;99502.03;5054504;28;19946;-77
2023/03/31 07:22:06;;;;;;;;;;;;;;;8.77;100.00;99488.94;5055141;28;19927;-74
2023/03/31 07:24:31;;;;;;;;;;;;;;;8.77;100.00;99496.97;5070977;28;19920;-72
2023/03/31 07:26:56;;;;;;;;;;;;;;;8.80;100.00;99493.19;5058275;28;19920;-74
2023/03/31 07:29:22;;;;;;;;;;;;;;;8.79;100.00;99491.50;5068578;28;19927;-73
2023/03/31 07:31:47;;;;;;;;;;;;;;;9.02;100.00;99475.13;5055042;28;19916;-74
2023/03/31 07:34:12;;;;;;;;;;;;;;;8.99;100.00;99478.94;5054291;28;19928;-72
2023/03/31 07:36:37;;;;;;;;;;;;;;;9.06;100.00;99473.84;5041150;28;20510;-74
2023/03/31 07:39:04;;;;;;;;;;;;;;;9.14;100.00;99466.78;5038475;28;20461;-75
2023/03/31 07:41:29;;;;;;;;;;;;;;;9.13;100.00;99449.03;5063035;28;19920;-74
2023/03/31 07:43:55;;;;;;;;;;;;;;;9.13;100.00;99462.41;5056499;28;20358;-72
2023/03/31 07:46:25;;;;;;;;;;;;;;;9.21;100.00;99455.50;5070791;28;19931;-72
2023/03/31 07:48:50;;;;;;;;;;;;;;;9.24;100.00;99458.72;5061347;28;19916;-72
2023/03/31 07:51:16;;;;;;;;;;;;;;;9.31;100.00;99464.34;5059661;28;19920;-73
2023/03/31 07:53:42;;;;;;;;;;;;;;;9.37;100.00;99470.97;5066536;28;20015;-73
2023/03/31 07:56:07;;;;;;;;;;;;;;;9.43;100.00;99467.69;5073777;28;19920;-72
2023/03/31 07:58:32;;;;;;;;;;;;;;;9.40;100.00;99451.94;5058564;28;19927;-74
2023/03/31 08:00:58;;;;;;;;;;;;;;;9.40;100.00;99454.63;5036036;28;19924;-71
2023/03/31 08:03:23;;;;;;;;;;;;;;;9.37;100.00;99454.91;5058572;28;19931;-71
2023/03/31 08:05:51;;;;;;;;;;;;;;;9.36;100.00;99453.22;5052304;28;19919;-73
2023/03/31 08:08:16;;;;;;;;;;;;;;;9.47;100.00;99444.97;5060561;28;21881;-73
2023/03/31 08:10:42;;;;;;;;;;;;;;;9.57;100.00;99448.47;5079932;28;19931;-75
2023/03/31 08:13:07;;;;;;;;;;;;;;;9.49;100.00;99447.53;5057973;28;20346;-75
2023/03/31 08:15:32;;;;;;;;;;;;;;;9.60;100.00;99441.97;5072750;28;20363;-74
2023/03/31 08:17:57;;;;;;;;;;;;;;;9.59;100.00;99442.94;5060980;28;19920;-71
2023/03/31 08:20:22;;;;;;;;;;;;;;;9.60;100.00;99448.19;5075959;28;19923;-73
2023/03/31 08:22:48;;;;;;;;;;;;;;;9.69;100.00;99446.44;5076586;28;19960;-72
2023/03/31 08:25:13;;;;;;;;;;;;;;;9.81;100.00;99451.59;5079551;28;20692;-71
2023/03/31 08:27:39;;;;;;;;;;;;;;;9.84;100.00;99449.47;5064831;28;19920;-72
2023/03/31 08:30:05;;;;;;;;;;;;;;;9.92;100.00;99445.22;5053678;28;20385;-71
2023/03/31 08:32:31;;;;;;;;;;;;;;;10.02;100.00;99443.31;5067636;28;20272;-72
2023/03/31 08:34:56;;;;;;;;;;;;;;;10.09;100.00;99451.59;5059296;28;19916;-71
2023/03/31 08:37:21;;;;;;;;;;;;;;;10.10;100.00;99438.03;5057938;28;19920;-73
2023/03/31 08:39:47;;;;;;;;;;;;;;;10.17;100.00;99436.47;5041895;28;19912;-73
2023/03/31 08:42:12;;;;;;;;;;;;;;;10.24;100.00;99438.50;5063909;28;19931;-72
2023/03/31 08:44:39;;;;;;;;;;;;;;;10.14;100.00;99441.25;5078354;28;19954;-73
2023/03/31 08:47:04;;;;;;;;;;;;;;;10.32;100.00;99418.00;5060924;28;19947;-71
2023/03/31 08:49:32;;;;;;;;;;;;;;;10.32;100.00;99433.22;5074578;28;20394;-72
2023/03/31 08:51:58;;;;;;;;;;;;;;;10.24;100.00;99435.81;5058773;28;19920;-73
2023/03/31 08:54:33;;;;;;;;;;;;;;;10.31;100.00;99436.91;5058773;28;19920;-73
2023/03/31 08:56:59;;;;;;;;;;;;;;;10.25;100.00;99426.78;5071330;28;20023;-72
2023/03/31 08:59:32;;;;;;;;;;;;;;;10.33;100.00;99424.19;5073194;28;19927;-74
2023/03/31 09:02:04;;;;;;;;;;;;;;;10.32;100.00;99441.28;5054508;28;19942;-74
2023/03/31 09:04:29;;;;;;;;;;;;;;;10.30;100.00;99432.53;5059746;28;19916;-74
2023/03/31 09:06:56;;;;;;;;;;;;;;;10.44;100.00;99417.78;5059941;28;20350;-74
2023/03/31 09:09:28;;;;;;;;;;;;;;;10.49;100.00;99416.31;5057068;28;20043;-75
2023/03/31 09:11:54;;;;;;;;;;;;;;;10.47;100.00;99415.63;5058750;28;19924;-75
2023/03/31 09:14:22;;;;;;;;;;;;;;;10.53;100.00;99430.28;5054114;28;20473;-73
2023/03/31 09:16:59;;;;;;;;;;;;;;;10.60;100.00;99417.91;5063857;28;20022;-73
2023/03/31 09:19:38;;;;;;;;;;;;;;;10.62;100.00;99425.81;5058449;28;19927;-73
2023/03/31 09:22:12;;;;;;;;;;;;;;;10.60;100.00;99420.59;5062495;28;20287;-76
2023/03/31 09:25:00;;;;;;;;;;;;;;;10.67;100.00;99403.88;5051384;28;20285;-77
2023/03/31 09:27:27;;;;;;;;;;;;;;;10.78;100.00;99415.22;5064360;28;19920;-74
2023/03/31 09:29:54;;;;;;;;;;;;;;;10.98;100.00;99403.44;5058636;28;20000;-75
2023/03/31 09:32:19;;;;;;;;;;;;;;;10.84;100.00;99399.47;5046348;28;20314;-75
2023/03/31 09:34:45;;;;;;;;;;;;;;;10.83;100.00;99387.06;5077643;28;19927;-75
2023/03/31 09:37:11;;;;;;;;;;;;;;;11.08;100.00;99393.44;5058068;28;19919;-75
2023/03/31 09:39:37;;;;;;;;;;;;;;;11.18;100.00;99393.34;5073998;28;20403;-76
2023/03/31 09:42:02;;;;;;;;;;;;;;;11.34;100.00;99396.09;5042024;28;19920;-73
2023/03/31 09:44:37;;;;;;;;;;;;;;;11.51;100.00;99393.50;5044952;28;19927;-76
2023/03/31 09:47:05;;;;;;;;;;;;;;;11.45;100.00;99372.66;5037809;28;20352;-75
2023/03/31 09:49:31;;;;;;;;;;;;;;;11.73;100.00;99380.50;5057160;28;19928;-75
2023/03/31 09:52:05;;;;;;;;;;;;;;;11.80;100.00;99390.41;5077337;28;19975;-77
2023/03/31 09:54:38;;;;;;;;;;;;;;;11.72;100.00;99376.13;5058814;28;19931;-78
2023/03/31 09:57:11;;;;;;;;;;;;;;;11.66;100.00;99367.69;5075144;28;19973;-76
2023/03/31 09:59:36;;;;;;;;;;;;;;;11.49;100.00;99369.47;5066772;28;19959;-78
2023/03/31 10:02:03;;;;;;;;;;;;;;;11.44;100.00;99355.66;5050766;28;20054;-74
2023/03/31 10:04:32;;;;;;;;;;;;;;;11.45;100.00;99375.34;5057737;28;19920;-76
2023/03/31 10:06:57;;;;;;;;;;;;;;;11.38;100.00;99380.53;5039770;28;19924;-78
2023/03/31 10:09:26;;;;;;;;;;;;;;;11.38;100.00;99375.97;5047456;28;19916;-78
2023/03/31 10:12:15;;;;;;;;;;;;;;;11.36;100.00;99367.22;5058877;28;19952;-76
2023/03/31 10:14:42;;;;;;;;;;;;;;;11.31;100.00;99364.19;5063633;28;19924;-80
2023/03/31 10:17:12;;;;;;;;;;;;;;;11.40;100.00;99373.97;5037150;28;19920;-76
2023/03/31 10:19:37;;;;;;;;;;;;;;;11.39;100.00;99364.22;5071107;28;19977;-76
2023/03/31 10:22:04;;;;;;;;;;;;;;;11.39;100.00;99368.75;5057772;28;20280;-78
2023/03/31 10:24:40;;;;;;;;;;;;;;;11.40;100.00;99354.31;5073246;28;19985;-76
2023/03/31 10:27:18;;;;;;;;;;;;;;;11.41;100.00;99353.31;5058020;28;20531;-79
2023/03/31 10:29:44;;;;;;;;;;;;;;;11.59;100.00;99349.69;5073037;28;19921;-78
2023/03/31 10:32:19;;;;;;;;;;;;;;;11.69;100.00;99347.69;5040983;28;22256;-79
2023/03/31 10:34:44;;;;;;;;;;;;;;;11.83;100.00;99347.06;5059757;28;19935;-79
2023/03/31 10:37:11;;;;;;;;;;;;;;;11.87;100.00;99346.75;5061582;28;19916;-79
2023/03/31 10:39:38;;;;;;;;;;;;;;;11.87;100.00;99344.06;5053758;28;20385;-79
2023/03/31 10:42:03;;;;;;;;;;;;;;;11.82;100.00;99331.94;5062586;28;19973;-80
2023/03/31 10:44:36;;;;;;;;;;;;;;;11.84;100.00;99342.53;5045457;28;19920;-79
2023/03/31 10:47:20;;;;;;;;;;;;;;;11.80;100.00;99344.72;5062010;28;20402;-77
2023/03/31 10:49:47;;;;;;;;;;;;;;;11.72;100.00;99341.16;5056429;28;20425;-77
2023/03/31 10:52:14;;;;;;;;;;;;;;;11.84;100.00;99340.69;5078410;28;19916;-78
2023/03/31 10:54:45;;;;;;;;;;;;;;;11.97;100.00;99334.84;5048312;28;19927;-80
2023/03/31 10:57:10;;;;;;;;;;;;;;;11.97;100.00;99323.22;5061219;28;19920;-78
2023/03/31 10:59:39;;;;;;;;;;;;;;;12.11;100.00;99332.50;5061096;28;19954;-78
2023/03/31 11:02:23;;;;;;;;;;;;;;;12.07;100.00;99342.78;5041519;28;20263;-79
2023/03/31 11:04:52;;;;;;;;;;;;;;;11.90;100.00;99324.91;5075938;28;20407;-77
2023/03/31 11:07:20;;;;;;;;;;;;;;;11.70;100.00;99311.72;5079903;28;19920;-75
2023/03/31 11:09:45;;;;;;;;;;;;;;;11.94;100.00;99335.16;5074464;28;19923;-78
2023/03/31 11:12:10;;;;;;;;;;;;;;;12.00;100.00;99326.47;5062081;28;20318;-78
2023/03/31 11:14:47;;;;;;;;;;;;;;;12.17;100.00;99318.41;5086867;28;20034;-78
2023/03/31 11:17:45;;;;;;;;;;;;;;;12.43;100.00;99314.69;5076641;28;19920;-78
2023/03/31 11:20:36;;;;;;;;;;;;;;;12.59;100.00;99325.44;5049488;28;19922;-79
2023/03/31 11:23:21;;;;;;;;;;;;;;;12.49;100.00;99316.72;5078209;28;20411;-78
2023/03/31 11:25:52;;;;;;;;;;;;;;;12.34;100.00;99321.94;5080133;28;19920;-76
2023/03/31 11:28:26;;;;;;;;;;;;;;;12.23;100.00;99319.56;5062538;28;19916;-80
2023/03/31 11:30:53;;;;;;;;;;;;;;;12.07;100.00;99301.56;5042465;28;19924;-76
2023/03/31 11:33:41;;;;;;;;;;;;;;;12.04;100.00;99312.69;5083644;28;19919;-77
2023/03/31 11:36:10;;;;;;;;;;;;;;;11.91;100.00;99313.16;5043517;28;19926;-79
2023/03/31 11:38:54;;;;;;;;;;;;;;;11.92;100.00;99312.97;5069476;28;19991;-79
2023/03/31 11:41:27;;;;;;;;;;;;;;;12.13;100.00;99306.28;5078226;28;20290;-77
2023/03/31 11:43:53;;;;;;;;;;;;;;;12.15;100.00;99309.66;5061854;28;20098;-76
2023/03/31 11:46:21;;;;;;;;;;;;;;;12.48;100.00;99287.25;5060134;28;20198;-77
2023/03/31 11:48:49;;;;;;;;;;;;;;;12.49;100.00;99291.63;5061042;28;20038;-77
2023/03/31 11:51:16;;;;;;;;;;;;;;;12.62;100.00;99286.59;5061519;28;19968;-78
2023/03/31 11:53:42;;;;;;;;;;;;;;;12.94;100.00;99301.00;5042641;28;19920;-78
2023/03/31 11:56:07;;;;;;;;;;;;;;;12.99;100.00;99290.50;5058421;28;19927;-77
2023/03/31 11:58:34;;;;;;;;;;;;;;;12.87;100.00;99281.97;5044844;28;19916;-81
2023/03/31 12:01:06;;;;;;;;;;;;;;;12.74;100.00;99277.13;5073506;28;19957;-77
2023/03/31 12:03:41;;;;;;;;;;;;;;;12.67;100.00;99267.22;5058940;28;19927;-79
2023/03/31 12:06:15;;;;;;;;;;;;;;;12.42;100.00;99265.44;5064096;28;19920;-80
2023/03/31 12:08:43;;;;;;;;;;;;;;;12.38;100.00;99271.28;5055895;28;19920;-81
2023/03/31 12:11:10;;;;;;;;;;;;;;;12.27;100.00;99265.28;5058985;28;19920;-78
2023/03/31 12:13:39;;;;;;;;;;;;;;;12.26;100.00;99268.97;5069069;28;19928;-79
2023/03/31 12:16:05;;;;;;;;;;;;;;;12.42;100.00;99262.72;5041275;28;19920;-79
2023/03/31 12:18:32;;;;;;;;;;;;;;;12.57;100.00;99256.63;5058739;28;19931;-76
2023/03/31 12:20:59;;;;;;;;;;;;;;;12.62;100.00;99250.72;5057876;28;20044;-78
2023/03/31 12:23:27;;;;;;;;;;;;;;;12.53;100.00;99245.38;5049620;28;20647;-78
2023/03/31 12:26:06;;;;;;;;;;;;;;;12.61;100.00;99266.06;5057476;28;19920;-78
2023/03/31 12:28:33;;;;;;;;;;;;;;;12.64;100.00;99267.56;5060007;28;19941;-76
2023/03/31 12:30:59;;;;;;;;;;;;;;;12.34;100.00;99218.81;5057528;28;19920;-75
2023/03/31 12:33:26;;;;;;;;;;;;;;;12.74;100.00;99231.34;5059750;28;20001;-76
2023/03/31 12:36:09;;;;;;;;;;;;;;;12.69;100.00;99230.19;5059412;28;19952;-76
2023/03/31 12:38:56;;;;;;;;;;;;;;;12.72;100.00;99235.22;5056024;28;19932;-77
2023/03/31 12:41:21;;;;;;;;;;;;;;;12.71;100.00;99237.06;5075221;28;20670;-77
2023/03/31 12:44:05;;;;;;;;;;;;;;;12.65;100.00;99237.78;5075332;28;20397;-78
2023/03/31 12:46:30;;;;;;;;;;;;;;;12.93;100.00;99177.25;5056815;28;19924;-78